CSF6 weather

Ste-Marguerite Heliport
Ste-Marguerite, Quebec, Canada

Public forecast

Using degrees Celsius for public forecast. Weather courtesy of forecast.io.

METAR (pilot weather report)

Closest report is Montreal International (Mirabel) Airport, 21.1 nm (39.1 km) S. Retrieved 2019/07/21 01:00 UTC (23 minutes ago):

CYMX 210100Z 24003KT 200V280 25SM FEW030TCU FEW100 SCT230 BKN270 23/20 A2964 RMK TCU1AC1CI3CI2 TCU TR SLP040 DENSITY ALT 1700FT

TAF (pilot weather forecast)

Forecast is more than 12 hours old.

Closest forecast is Montreal International (Mirabel) Airport, 21.1 nm (39.1 km) S. Retrieved 2019/07/20 00:42 UTC (1 day ago):

TAF CYMX 202340Z 2100/2124 25005KT P6SM FEW025 SCT060 BKN100 PROB30 2100/2103 2SM +TSRA BR BKN006 OVC040CB FM210300 29004KT P6SM SCT003 BKN050 PROB40 2103/2105 1SM BR OVC003 FM210500 25005KT P6SM SCT004 BKN140 PROB30 2105/2107 1SM BR OVC003 FM210700 29003KT P6SM -RA OVC040 PROB30 2107/2109 1SM BR OVC003 FM210900 31004KT 6SM -RA BR BKN012 OVC025 PROB30 2109/2111 1SM -RA BR OVC003 FM211500 29005KT P6SM -SHRA SCT006 BKN012 OVC025 FM211800 23008KT P6SM -SHRA BKN040 RMK NXT FCST BY 210600Z